sensor_id;sensor_type;location;lat;lon;timestamp;pressure;altitude;pressure_sealevel;temperature;humidity
58662;BME280;44432;49.786;22.760;2022-12-19T00:01:50;101707.30;;;-5.10;72.97
58662;BME280;44432;49.786;22.760;2022-12-19T00:04:21;101705.51;;;-5.13;72.97
58662;BME280;44432;49.786;22.760;2022-12-19T00:06:51;101710.66;;;-5.18;72.82
58662;BME280;44432;49.786;22.760;2022-12-19T00:09:22;101706.36;;;-5.22;72.98
58662;BME280;44432;49.786;22.760;2022-12-19T00:11:53;101707.96;;;-5.23;73.02
58662;BME280;44432;49.786;22.760;2022-12-19T00:14:24;101704.10;;;-5.26;73.15
58662;BME280;44432;49.786;22.760;2022-12-19T00:16:55;101702.46;;;-5.29;72.92
58662;BME280;44432;49.786;22.760;2022-12-19T00:19:25;101703.04;;;-5.30;73.12
58662;BME280;44432;49.786;22.760;2022-12-19T00:21:56;101703.66;;;-5.33;73.05
58662;BME280;44432;49.786;22.760;2022-12-19T00:24:27;101702.81;;;-5.39;72.76
58662;BME280;44432;49.786;22.760;2022-12-19T00:26:57;101701.01;;;-5.46;72.89
58662;BME280;44432;49.786;22.760;2022-12-19T00:29:28;101701.66;;;-5.51;73.16
58662;BME280;44432;49.786;22.760;2022-12-19T00:31:59;101702.89;;;-5.56;72.88
58662;BME280;44432;49.786;22.760;2022-12-19T00:34:29;101698.30;;;-5.63;73.16
58662;BME280;44432;49.786;22.760;2022-12-19T00:37:00;101700.17;;;-5.68;73.48
58662;BME280;44432;49.786;22.760;2022-12-19T00:39:31;101690.88;;;-5.72;73.37
58662;BME280;44432;49.786;22.760;2022-12-19T00:42:01;101691.54;;;-5.76;73.39
58662;BME280;44432;49.786;22.760;2022-12-19T00:44:32;101694.33;;;-5.83;73.43
58662;BME280;44432;49.786;22.760;2022-12-19T00:47:03;101696.08;;;-5.89;73.59
58662;BME280;44432;49.786;22.760;2022-12-19T00:49:33;101691.84;;;-5.90;73.92
58662;BME280;44432;49.786;22.760;2022-12-19T00:52:04;101688.05;;;-5.95;73.60
58662;BME280;44432;49.786;22.760;2022-12-19T00:54:35;101690.02;;;-5.98;74.14
58662;BME280;44432;49.786;22.760;2022-12-19T00:57:05;101685.14;;;-6.01;73.84
58662;BME280;44432;49.786;22.760;2022-12-19T00:59:36;101683.88;;;-6.04;74.04
58662;BME280;44432;49.786;22.760;2022-12-19T01:02:07;101687.75;;;-6.07;73.96
58662;BME280;44432;49.786;22.760;2022-12-19T01:04:37;101687.04;;;-6.12;73.97
58662;BME280;44432;49.786;22.760;2022-12-19T01:07:08;101696.77;;;-6.16;74.02
58662;BME280;44432;49.786;22.760;2022-12-19T01:09:39;101697.19;;;-6.19;74.00
58662;BME280;44432;49.786;22.760;2022-12-19T01:12:10;101695.79;;;-6.23;74.28
58662;BME280;44432;49.786;22.760;2022-12-19T01:14:59;101692.50;;;-6.27;74.12
58662;BME280;44432;49.786;22.760;2022-12-19T01:17:29;101684.24;;;-6.32;73.85
58662;BME280;44432;49.786;22.760;2022-12-19T01:20:03;101680.26;;;-6.36;74.24
58662;BME280;44432;49.786;22.760;2022-12-19T01:22:34;101681.58;;;-6.40;74.09
58662;BME280;44432;49.786;22.760;2022-12-19T01:25:06;101673.70;;;-6.45;73.90
58662;BME280;44432;49.786;22.760;2022-12-19T01:27:37;101676.47;;;-6.46;74.14
58662;BME280;44432;49.786;22.760;2022-12-19T01:30:10;101670.62;;;-6.51;74.13
58662;BME280;44432;49.786;22.760;2022-12-19T01:32:39;101677.41;;;-6.55;73.95
58662;BME280;44432;49.786;22.760;2022-12-19T01:35:10;101680.88;;;-6.63;73.91
58662;BME280;44432;49.786;22.760;2022-12-19T01:37:40;101675.11;;;-6.71;73.76
58662;BME280;44432;49.786;22.760;2022-12-19T01:40:13;101674.22;;;-6.75;74.14
58662;BME280;44432;49.786;22.760;2022-12-19T01:42:43;101666.30;;;-6.80;74.03
58662;BME280;44432;49.786;22.760;2022-12-19T01:45:25;101657.82;;;-6.88;74.04
58662;BME280;44432;49.786;22.760;2022-12-19T01:47:59;101656.20;;;-6.98;74.06
58662;BME280;44432;49.786;22.760;2022-12-19T01:50:35;101654.55;;;-7.06;74.27
58662;BME280;44432;49.786;22.760;2022-12-19T01:53:09;101648.89;;;-7.18;73.89
58662;BME280;44432;49.786;22.760;2022-12-19T01:55:44;101651.29;;;-7.36;73.84
58662;BME280;44432;49.786;22.760;2022-12-19T01:58:14;101652.13;;;-7.49;74.25
58662;BME280;44432;49.786;22.760;2022-12-19T02:00:46;101648.74;;;-7.56;74.05
58662;BME280;44432;49.786;22.760;2022-12-19T02:03:19;101645.66;;;-7.63;74.54
58662;BME280;44432;49.786;22.760;2022-12-19T02:05:53;101646.98;;;-7.68;74.78
58662;BME280;44432;49.786;22.760;2022-12-19T02:08:25;101643.24;;;-7.75;74.65
58662;BME280;44432;49.786;22.760;2022-12-19T02:10:56;101643.48;;;-7.78;74.93
58662;BME280;44432;49.786;22.760;2022-12-19T02:13:26;101639.62;;;-7.81;75.19
58662;BME280;44432;49.786;22.760;2022-12-19T02:16:01;101636.69;;;-7.87;75.24
58662;BME280;44432;49.786;22.760;2022-12-19T02:18:42;101646.25;;;-7.94;74.97
58662;BME280;44432;49.786;22.760;2022-12-19T02:21:24;101647.67;;;-7.96;75.39
58662;BME280;44432;49.786;22.760;2022-12-19T02:27:19;101642.84;;;-8.08;75.15
58662;BME280;44432;49.786;22.760;2022-12-19T02:30:10;101641.29;;;-8.15;75.25
58662;BME280;44432;49.786;22.760;2022-12-19T02:32:48;101638.10;;;-8.24;75.14
58662;BME280;44432;49.786;22.760;2022-12-19T02:35:29;101639.30;;;-8.37;74.87
58662;BME280;44432;49.786;22.760;2022-12-19T02:38:10;101643.68;;;-8.49;74.92
58662;BME280;44432;49.786;22.760;2022-12-19T02:40:48;101644.41;;;-8.59;75.35
58662;BME280;44432;49.786;22.760;2022-12-19T02:43:21;101646.98;;;-8.60;76.07
58662;BME280;44432;49.786;22.760;2022-12-19T02:45:52;101648.14;;;-8.58;75.99
58662;BME280;44432;49.786;22.760;2022-12-19T02:48:23;101645.02;;;-8.64;75.39
58662;BME280;44432;49.786;22.760;2022-12-19T02:50:55;101647.55;;;-8.78;74.91
58662;BME280;44432;49.786;22.760;2022-12-19T02:53:25;101646.06;;;-8.89;75.40
58662;BME280;44432;49.786;22.760;2022-12-19T02:56:07;101645.12;;;-8.93;75.88
58662;BME280;44432;49.786;22.760;2022-12-19T02:58:51;101647.34;;;-8.94;75.92
58662;BME280;44432;49.786;22.760;2022-12-19T03:01:34;101652.30;;;-8.94;76.07
58662;BME280;44432;49.786;22.760;2022-12-19T03:04:16;101654.71;;;-8.95;76.13
58662;BME280;44432;49.786;22.760;2022-12-19T03:06:52;101644.91;;;-9.01;76.00
58662;BME280;44432;49.786;22.760;2022-12-19T03:09:30;101641.90;;;-9.03;76.07
58662;BME280;44432;49.786;22.760;2022-12-19T03:12:09;101645.58;;;-9.07;76.18
58662;BME280;44432;49.786;22.760;2022-12-19T03:14:41;101646.79;;;-9.08;76.42
58662;BME280;44432;49.786;22.760;2022-12-19T03:17:13;101650.52;;;-9.07;76.63
58662;BME280;44432;49.786;22.760;2022-12-19T03:19:43;101652.02;;;-9.06;76.39
58662;BME280;44432;49.786;22.760;2022-12-19T03:22:15;101649.72;;;-9.10;76.37
58662;BME280;44432;49.786;22.760;2022-12-19T03:24:45;101645.69;;;-9.13;76.41
58662;BME280;44432;49.786;22.760;2022-12-19T03:27:19;101644.05;;;-9.17;76.22
58662;BME280;44432;49.786;22.760;2022-12-19T03:29:55;101646.60;;;-9.25;76.01
58662;BME280;44432;49.786;22.760;2022-12-19T03:32:30;101651.27;;;-9.37;75.78
58662;BME280;44432;49.786;22.760;2022-12-19T03:35:04;101648.69;;;-9.43;76.35
58662;BME280;44432;49.786;22.760;2022-12-19T03:37:37;101648.36;;;-9.44;76.80
58662;BME280;44432;49.786;22.760;2022-12-19T03:40:14;101650.20;;;-9.43;76.86
58662;BME280;44432;49.786;22.760;2022-12-19T03:42:47;101651.94;;;-9.44;76.60
58662;BME280;44432;49.786;22.760;2022-12-19T03:45:44;101647.25;;;-9.49;76.74
58662;BME280;44432;49.786;22.760;2022-12-19T03:48:23;101649.61;;;-9.48;76.84
58662;BME280;44432;49.786;22.760;2022-12-19T03:51:04;101646.69;;;-9.46;77.39
58662;BME280;44432;49.786;22.760;2022-12-19T03:53:50;101645.95;;;-9.44;77.28
58662;BME280;44432;49.786;22.760;2022-12-19T03:56:31;101641.32;;;-9.42;77.14
58662;BME280;44432;49.786;22.760;2022-12-19T03:59:08;101644.56;;;-9.51;76.46
58662;BME280;44432;49.786;22.760;2022-12-19T04:01:41;101644.84;;;-9.67;76.31
58662;BME280;44432;49.786;22.760;2022-12-19T04:04:13;101639.53;;;-9.76;76.59
58662;BME280;44432;49.786;22.760;2022-12-19T04:06:45;101642.95;;;-9.76;76.98
58662;BME280;44432;49.786;22.760;2022-12-19T04:09:20;101647.63;;;-9.81;76.90
58662;BME280;44432;49.786;22.760;2022-12-19T04:11:54;101653.36;;;-9.87;76.77
58662;BME280;44432;49.786;22.760;2022-12-19T04:14:30;101653.20;;;-9.99;76.81
58662;BME280;44432;49.786;22.760;2022-12-19T04:17:08;101652.48;;;-10.08;77.12
58662;BME280;44432;49.786;22.760;2022-12-19T04:19:47;101654.16;;;-10.06;77.47
58662;BME280;44432;49.786;22.760;2022-12-19T04:22:24;101662.06;;;-9.99;78.05
58662;BME280;44432;49.786;22.760;2022-12-19T04:24:57;101666.67;;;-9.89;78.00
58662;BME280;44432;49.786;22.760;2022-12-19T04:27:29;101657.49;;;-9.80;78.40
58662;BME280;44432;49.786;22.760;2022-12-19T04:30:02;101654.84;;;-9.74;77.49
58662;BME280;44432;49.786;22.760;2022-12-19T04:32:36;101653.05;;;-9.79;76.84
58662;BME280;44432;49.786;22.760;2022-12-19T04:35:08;101660.86;;;-9.88;76.63
58662;BME280;44432;49.786;22.760;2022-12-19T04:37:38;101658.11;;;-9.97;76.38
58662;BME280;44432;49.786;22.760;2022-12-19T04:40:11;101656.59;;;-10.09;76.05
58662;BME280;44432;49.786;22.760;2022-12-19T04:42:42;101653.35;;;-10.18;76.37
58662;BME280;44432;49.786;22.760;2022-12-19T04:45:13;101650.61;;;-10.28;76.45
58662;BME280;44432;49.786;22.760;2022-12-19T04:47:44;101649.54;;;-10.36;76.59
58662;BME280;44432;49.786;22.760;2022-12-19T04:50:15;101646.44;;;-10.43;76.16
58662;BME280;44432;49.786;22.760;2022-12-19T04:52:46;101648.95;;;-10.52;76.46
58662;BME280;44432;49.786;22.760;2022-12-19T04:55:16;101644.08;;;-10.56;77.13
58662;BME280;44432;49.786;22.760;2022-12-19T04:57:47;101644.88;;;-10.52;77.58
58662;BME280;44432;49.786;22.760;2022-12-19T05:00:18;101637.21;;;-10.52;77.53
58662;BME280;44432;49.786;22.760;2022-12-19T05:02:49;101641.21;;;-10.46;77.51
58662;BME280;44432;49.786;22.760;2022-12-19T05:05:19;101636.84;;;-10.39;77.99
58662;BME280;44432;49.786;22.760;2022-12-19T05:07:50;101635.91;;;-10.35;77.88
58662;BME280;44432;49.786;22.760;2022-12-19T05:10:21;101628.63;;;-10.37;77.47
58662;BME280;44432;49.786;22.760;2022-12-19T05:12:51;101626.23;;;-10.36;77.67
58662;BME280;44432;49.786;22.760;2022-12-19T05:15:22;101627.75;;;-10.36;77.44
58662;BME280;44432;49.786;22.760;2022-12-19T05:17:53;101629.68;;;-10.39;76.89
58662;BME280;44432;49.786;22.760;2022-12-19T05:20:24;101629.60;;;-10.43;77.30
58662;BME280;44432;49.786;22.760;2022-12-19T05:22:54;101627.29;;;-10.48;76.65
58662;BME280;44432;49.786;22.760;2022-12-19T05:25:25;101624.88;;;-10.59;76.88
58662;BME280;44432;49.786;22.760;2022-12-19T05:27:56;101623.48;;;-10.68;76.40
58662;BME280;44432;49.786;22.760;2022-12-19T05:30:26;101623.44;;;-10.77;76.73
58662;BME280;44432;49.786;22.760;2022-12-19T05:32:57;101623.18;;;-10.84;76.81
58662;BME280;44432;49.786;22.760;2022-12-19T05:35:28;101624.43;;;-10.89;77.49
58662;BME280;44432;49.786;22.760;2022-12-19T05:37:58;101615.82;;;-10.94;76.79
58662;BME280;44432;49.786;22.760;2022-12-19T05:40:29;101618.64;;;-11.01;76.58
58662;BME280;44432;49.786;22.760;2022-12-19T05:43:00;101621.27;;;-11.07;76.82
58662;BME280;44432;49.786;22.760;2022-12-19T05:45:31;101614.84;;;-11.10;77.55
58662;BME280;44432;49.786;22.760;2022-12-19T05:48:01;101612.68;;;-11.15;77.08
58662;BME280;44432;49.786;22.760;2022-12-19T05:50:32;101612.20;;;-11.17;77.20
58662;BME280;44432;49.786;22.760;2022-12-19T05:53:02;101613.17;;;-11.28;76.90
58662;BME280;44432;49.786;22.760;2022-12-19T05:55:33;101620.58;;;-11.37;77.21
58662;BME280;44432;49.786;22.760;2022-12-19T05:58:04;101624.50;;;-11.38;77.21
58662;BME280;44432;49.786;22.760;2022-12-19T06:00:34;101627.02;;;-11.36;77.63
58662;BME280;44432;49.786;22.760;2022-12-19T06:03:05;101620.36;;;-11.33;77.63
58662;BME280;44432;49.786;22.760;2022-12-19T06:05:38;101620.06;;;-11.36;77.53
58662;BME280;44432;49.786;22.760;2022-12-19T06:08:08;101621.20;;;-11.45;76.81
58662;BME280;44432;49.786;22.760;2022-12-19T06:10:39;101615.14;;;-11.49;77.30
58662;BME280;44432;49.786;22.760;2022-12-19T06:13:10;101613.96;;;-11.50;78.05
58662;BME280;44432;49.786;22.760;2022-12-19T06:15:40;101612.73;;;-11.47;77.61
58662;BME280;44432;49.786;22.760;2022-12-19T06:18:14;101610.13;;;-11.43;78.15
58662;BME280;44432;49.786;22.760;2022-12-19T06:20:44;101614.52;;;-11.42;77.85
58662;BME280;44432;49.786;22.760;2022-12-19T06:23:24;101613.15;;;-11.41;77.68
58662;BME280;44432;49.786;22.760;2022-12-19T06:25:57;101605.84;;;-11.41;77.90
58662;BME280;44432;49.786;22.760;2022-12-19T06:28:27;101604.66;;;-11.42;77.32
58662;BME280;44432;49.786;22.760;2022-12-19T06:30:59;101604.67;;;-11.43;77.22
58662;BME280;44432;49.786;22.760;2022-12-19T06:33:31;101610.44;;;-11.41;78.16
58662;BME280;44432;49.786;22.760;2022-12-19T06:36:03;101611.94;;;-11.39;77.95
58662;BME280;44432;49.786;22.760;2022-12-19T06:38:35;101606.79;;;-11.35;78.07
58662;BME280;44432;49.786;22.760;2022-12-19T06:41:06;101607.63;;;-11.34;77.54
58662;BME280;44432;49.786;22.760;2022-12-19T06:43:59;101606.76;;;-11.32;77.72
58662;BME280;44432;49.786;22.760;2022-12-19T06:46:30;101602.83;;;-11.30;77.24
58662;BME280;44432;49.786;22.760;2022-12-19T06:49:01;101601.86;;;-11.35;77.25
58662;BME280;44432;49.786;22.760;2022-12-19T06:51:32;101602.95;;;-11.41;77.04
58662;BME280;44432;49.786;22.760;2022-12-19T06:54:03;101604.25;;;-11.47;77.03
58662;BME280;44432;49.786;22.760;2022-12-19T06:56:36;101605.95;;;-11.48;77.20
58662;BME280;44432;49.786;22.760;2022-12-19T06:59:10;101601.44;;;-11.55;76.70
58662;BME280;44432;49.786;22.760;2022-12-19T07:01:51;101600.31;;;-11.61;76.51
58662;BME280;44432;49.786;22.760;2022-12-19T07:04:27;101614.04;;;-11.58;76.67
58662;BME280;44432;49.786;22.760;2022-12-19T07:06:59;101608.11;;;-11.59;76.43
58662;BME280;44432;49.786;22.760;2022-12-19T07:09:30;101606.35;;;-11.70;76.25
58662;BME280;44432;49.786;22.760;2022-12-19T07:12:01;101605.17;;;-11.71;76.33
58662;BME280;44432;49.786;22.760;2022-12-19T07:14:32;101607.73;;;-11.72;76.16
58662;BME280;44432;49.786;22.760;2022-12-19T07:17:03;101609.56;;;-11.68;76.56
58662;BME280;44432;49.786;22.760;2022-12-19T07:19:35;101611.48;;;-11.58;77.07
58662;BME280;44432;49.786;22.760;2022-12-19T07:22:07;101608.90;;;-11.53;76.31
58662;BME280;44432;49.786;22.760;2022-12-19T07:24:39;101608.94;;;-11.43;76.82
58662;BME280;44432;49.786;22.760;2022-12-19T07:27:09;101608.84;;;-11.35;76.83
58662;BME280;44432;49.786;22.760;2022-12-19T07:29:40;101606.02;;;-11.27;77.18
58662;BME280;44432;49.786;22.760;2022-12-19T07:32:11;101605.73;;;-11.15;76.60
58662;BME280;44432;49.786;22.760;2022-12-19T07:34:42;101605.38;;;-11.02;77.12
58662;BME280;44432;49.786;22.760;2022-12-19T07:37:12;101608.73;;;-10.85;77.16
58662;BME280;44432;49.786;22.760;2022-12-19T07:39:43;101608.90;;;-10.72;77.07
58662;BME280;44432;49.786;22.760;2022-12-19T07:42:14;101610.42;;;-10.60;76.70
58662;BME280;44432;49.786;22.760;2022-12-19T07:44:44;101605.73;;;-10.52;76.36
58662;BME280;44432;49.786;22.760;2022-12-19T07:47:15;101605.54;;;-10.51;76.20
58662;BME280;44432;49.786;22.760;2022-12-19T07:49:45;101606.30;;;-10.45;75.90
58662;BME280;44432;49.786;22.760;2022-12-19T07:52:16;101604.86;;;-10.40;76.05
58662;BME280;44432;49.786;22.760;2022-12-19T07:54:47;101603.09;;;-10.37;75.43
58662;BME280;44432;49.786;22.760;2022-12-19T07:57:17;101604.13;;;-10.38;75.29
58662;BME280;44432;49.786;22.760;2022-12-19T07:59:48;101605.60;;;-10.34;75.52
58662;BME280;44432;49.786;22.760;2022-12-19T08:02:18;101607.72;;;-10.28;75.94
58662;BME280;44432;49.786;22.760;2022-12-19T08:04:49;101605.39;;;-10.22;75.73
58662;BME280;44432;49.786;22.760;2022-12-19T08:07:20;101601.55;;;-10.17;75.23
58662;BME280;44432;49.786;22.760;2022-12-19T08:09:50;101599.64;;;-10.14;75.32
58662;BME280;44432;49.786;22.760;2022-12-19T08:12:21;101594.15;;;-10.12;74.97
58662;BME280;44432;49.786;22.760;2022-12-19T08:14:52;101594.16;;;-10.02;75.50
58662;BME280;44432;49.786;22.760;2022-12-19T08:17:22;101605.42;;;-9.83;75.81
58662;BME280;44432;49.786;22.760;2022-12-19T08:19:54;101599.27;;;-9.64;75.85
58662;BME280;44432;49.786;22.760;2022-12-19T08:22:25;101594.40;;;-9.40;75.76
58662;BME280;44432;49.786;22.760;2022-12-19T08:24:55;101594.57;;;-9.16;75.84
58662;BME280;44432;49.786;22.760;2022-12-19T08:27:26;101590.39;;;-8.95;75.42
58662;BME280;44432;49.786;22.760;2022-12-19T08:29:57;101590.11;;;-8.89;74.97
58662;BME280;44432;49.786;22.760;2022-12-19T08:32:28;101592.27;;;-8.87;74.67
58662;BME280;44432;49.786;22.760;2022-12-19T08:34:58;101593.15;;;-8.88;74.30
58662;BME280;44432;49.786;22.760;2022-12-19T08:37:29;101590.55;;;-8.95;74.22
58662;BME280;44432;49.786;22.760;2022-12-19T08:39:59;101588.20;;;-8.97;74.21
58662;BME280;44432;49.786;22.760;2022-12-19T08:42:30;101588.00;;;-9.03;73.85
58662;BME280;44432;49.786;22.760;2022-12-19T08:45:01;101589.08;;;-9.06;74.15
58662;BME280;44432;49.786;22.760;2022-12-19T08:47:32;101589.56;;;-9.05;74.29
58662;BME280;44432;49.786;22.760;2022-12-19T08:50:04;101588.02;;;-9.04;74.18
58662;BME280;44432;49.786;22.760;2022-12-19T08:52:35;101588.40;;;-9.06;74.17
58662;BME280;44432;49.786;22.760;2022-12-19T08:55:07;101587.02;;;-9.06;74.28
58662;BME280;44432;49.786;22.760;2022-12-19T08:57:50;101589.65;;;-9.01;74.71
58662;BME280;44432;49.786;22.760;2022-12-19T09:00:21;101593.80;;;-8.95;74.57
58662;BME280;44432;49.786;22.760;2022-12-19T09:02:51;101594.57;;;-8.91;74.44
58662;BME280;44432;49.786;22.760;2022-12-19T09:05:22;101587.68;;;-8.88;74.45
58662;BME280;44432;49.786;22.760;2022-12-19T09:07:53;101587.84;;;-8.87;74.29
58662;BME280;44432;49.786;22.760;2022-12-19T09:10:23;101584.92;;;-8.86;74.47
58662;BME280;44432;49.786;22.760;2022-12-19T09:12:54;101586.20;;;-8.83;74.53
58662;BME280;44432;49.786;22.760;2022-12-19T09:15:24;101576.15;;;-8.83;74.38
58662;BME280;44432;49.786;22.760;2022-12-19T09:17:55;101573.47;;;-8.78;74.58
58662;BME280;44432;49.786;22.760;2022-12-19T09:20:26;101570.32;;;-8.74;74.58
58662;BME280;44432;49.786;22.760;2022-12-19T09:22:56;101566.25;;;-8.68;74.51
58662;BME280;44432;49.786;22.760;2022-12-19T09:25:27;101560.29;;;-8.61;74.52
58662;BME280;44432;49.786;22.760;2022-12-19T09:27:58;101561.19;;;-8.55;74.30
58662;BME280;44432;49.786;22.760;2022-12-19T09:30:28;101554.46;;;-8.45;74.84
58662;BME280;44432;49.786;22.760;2022-12-19T09:32:59;101552.74;;;-8.32;75.17
58662;BME280;44432;49.786;22.760;2022-12-19T09:35:29;101552.70;;;-8.18;75.04
58662;BME280;44432;49.786;22.760;2022-12-19T09:38:00;101548.73;;;-8.10;74.36
58662;BME280;44432;49.786;22.760;2022-12-19T09:40:43;101538.98;;;-8.03;74.41
58662;BME280;44432;49.786;22.760;2022-12-19T09:43:24;101539.39;;;-7.92;74.39
58662;BME280;44432;49.786;22.760;2022-12-19T09:46:01;101535.94;;;-7.78;74.42
58662;BME280;44432;49.786;22.760;2022-12-19T09:48:36;101535.17;;;-7.62;74.55
58662;BME280;44432;49.786;22.760;2022-12-19T09:51:12;101532.45;;;-7.50;73.95
58662;BME280;44432;49.786;22.760;2022-12-19T09:53:56;101529.77;;;-7.39;73.73
58662;BME280;44432;49.786;22.760;2022-12-19T09:56:31;101529.80;;;-7.30;73.31
58662;BME280;44432;49.786;22.760;2022-12-19T09:59:07;101523.52;;;-7.20;73.49
58662;BME280;44432;49.786;22.760;2022-12-19T10:01:50;101515.70;;;-7.16;72.93
58662;BME280;44432;49.786;22.760;2022-12-19T10:04:25;101516.56;;;-7.16;72.48
58662;BME280;44432;49.786;22.760;2022-12-19T10:06:57;101513.44;;;-7.20;71.77
58662;BME280;44432;49.786;22.760;2022-12-19T10:09:33;101508.16;;;-7.27;71.55
58662;BME280;44432;49.786;22.760;2022-12-19T10:12:23;101500.20;;;-7.29;71.86
58662;BME280;44432;49.786;22.760;2022-12-19T10:15:05;101501.06;;;-7.24;72.38
58662;BME280;44432;49.786;22.760;2022-12-19T10:17:53;101495.39;;;-7.18;72.16
58662;BME280;44432;49.786;22.760;2022-12-19T10:20:31;101491.10;;;-7.11;72.20
58662;BME280;44432;49.786;22.760;2022-12-19T10:23:18;101484.04;;;-7.04;72.39
58662;BME280;44432;49.786;22.760;2022-12-19T10:26:00;101481.90;;;-6.96;72.18
58662;BME280;44432;49.786;22.760;2022-12-19T10:28:44;101475.35;;;-6.89;72.30
58662;BME280;44432;49.786;22.760;2022-12-19T10:31:21;101471.13;;;-6.85;72.23
58662;BME280;44432;49.786;22.760;2022-12-19T10:33:56;101466.33;;;-6.80;72.02
58662;BME280;44432;49.786;22.760;2022-12-19T10:36:31;101461.70;;;-6.74;72.12
58662;BME280;44432;49.786;22.760;2022-12-19T10:39:11;101461.32;;;-6.68;72.20
58662;BME280;44432;49.786;22.760;2022-12-19T10:41:45;101457.67;;;-6.61;72.13
58662;BME280;44432;49.786;22.760;2022-12-19T10:44:18;101449.23;;;-6.55;71.76
58662;BME280;44432;49.786;22.760;2022-12-19T10:46:50;101445.99;;;-6.49;71.89
58662;BME280;44432;49.786;22.760;2022-12-19T10:49:24;101441.90;;;-6.45;71.70
58662;BME280;44432;49.786;22.760;2022-12-19T10:51:58;101435.88;;;-6.39;72.01
58662;BME280;44432;49.786;22.760;2022-12-19T10:54:39;101437.08;;;-6.34;71.75
58662;BME280;44432;49.786;22.760;2022-12-19T10:57:24;101429.77;;;-6.31;71.77
58662;BME280;44432;49.786;22.760;2022-12-19T10:59:59;101435.68;;;-6.24;71.66
58662;BME280;44432;49.786;22.760;2022-12-19T11:02:39;101429.39;;;-6.21;71.68
58662;BME280;44432;49.786;22.760;2022-12-19T11:05:23;101429.98;;;-6.13;71.69
58662;BME280;44432;49.786;22.760;2022-12-19T11:08:02;101430.08;;;-6.06;71.53
58662;BME280;44432;49.786;22.760;2022-12-19T11:10:42;101421.36;;;-6.02;71.37
58662;BME280;44432;49.786;22.760;2022-12-19T11:13:24;101417.96;;;-5.99;71.25
58662;BME280;44432;49.786;22.760;2022-12-19T11:15:55;101413.87;;;-5.95;71.20
58662;BME280;44432;49.786;22.760;2022-12-19T11:18:35;101416.85;;;-5.91;71.20
58662;BME280;44432;49.786;22.760;2022-12-19T11:21:12;101404.52;;;-5.88;71.18
58662;BME280;44432;49.786;22.760;2022-12-19T11:23:50;101392.41;;;-5.85;71.30
58662;BME280;44432;49.786;22.760;2022-12-19T11:26:34;101395.38;;;-5.77;70.95
58662;BME280;44432;49.786;22.760;2022-12-19T11:29:18;101394.88;;;-5.73;70.91
58662;BME280;44432;49.786;22.760;2022-12-19T11:31:56;101387.48;;;-5.68;70.70
58662;BME280;44432;49.786;22.760;2022-12-19T11:34:30;101380.27;;;-5.63;70.70
58662;BME280;44432;49.786;22.760;2022-12-19T11:37:06;101375.79;;;-5.58;70.64
58662;BME280;44432;49.786;22.760;2022-12-19T11:39:46;101371.94;;;-5.56;70.45
58662;BME280;44432;49.786;22.760;2022-12-19T11:42:22;101360.16;;;-5.53;70.54
58662;BME280;44432;49.786;22.760;2022-12-19T11:44:57;101353.95;;;-5.52;70.17
58662;BME280;44432;49.786;22.760;2022-12-19T11:47:37;101348.40;;;-5.55;69.99
58662;BME280;44432;49.786;22.760;2022-12-19T11:50:13;101347.60;;;-5.56;69.88
58662;BME280;44432;49.786;22.760;2022-12-19T11:52:51;101351.39;;;-5.57;70.26
58662;BME280;44432;49.786;22.760;2022-12-19T11:55:27;101352.17;;;-5.55;69.94
58662;BME280;44432;49.786;22.760;2022-12-19T11:58:00;101353.80;;;-5.53;70.12
58662;BME280;44432;49.786;22.760;2022-12-19T12:00:33;101361.53;;;-5.49;70.02
58662;BME280;44432;49.786;22.760;2022-12-19T12:03:38;101360.84;;;-5.48;69.76
58662;BME280;44432;49.786;22.760;2022-12-19T12:06:16;101364.83;;;-5.45;69.92
58662;BME280;44432;49.786;22.760;2022-12-19T12:08:59;101360.61;;;-5.43;69.83
58662;BME280;44432;49.786;22.760;2022-12-19T12:11:41;101352.38;;;-5.38;70.24
58662;BME280;44432;49.786;22.760;2022-12-19T12:14:19;101351.09;;;-5.36;69.86
58662;BME280;44432;49.786;22.760;2022-12-19T12:17:15;101350.95;;;-5.33;69.92
58662;BME280;44432;49.786;22.760;2022-12-19T12:19:58;101347.67;;;-5.28;70.04
58662;BME280;44432;49.786;22.760;2022-12-19T12:22:47;101344.40;;;-5.23;69.99
58662;BME280;44432;49.786;22.760;2022-12-19T12:25:32;101337.20;;;-5.20;70.06
58662;BME280;44432;49.786;22.760;2022-12-19T12:28:35;101329.05;;;-5.18;70.04
58662;BME280;44432;49.786;22.760;2022-12-19T12:31:15;101325.35;;;-5.15;69.92
58662;BME280;44432;49.786;22.760;2022-12-19T12:34:02;101324.97;;;-5.15;69.90
58662;BME280;44432;49.786;22.760;2022-12-19T12:36:41;101320.97;;;-5.14;70.03
58662;BME280;44432;49.786;22.760;2022-12-19T12:39:20;101311.52;;;-5.13;69.96
58662;BME280;44432;49.786;22.760;2022-12-19T12:42:01;101305.54;;;-5.14;69.92
58662;BME280;44432;49.786;22.760;2022-12-19T12:44:35;101304.39;;;-5.15;69.85
58662;BME280;44432;49.786;22.760;2022-12-19T12:47:16;101301.89;;;-5.17;69.60
58662;BME280;44432;49.786;22.760;2022-12-19T12:49:49;101300.05;;;-5.18;69.77
58662;BME280;44432;49.786;22.760;2022-12-19T12:52:34;101306.64;;;-5.19;69.76
58662;BME280;44432;49.786;22.760;2022-12-19T12:55:13;101307.98;;;-5.19;69.99
58662;BME280;44432;49.786;22.760;2022-12-19T12:57:44;101310.26;;;-5.20;69.87
58662;BME280;44432;49.786;22.760;2022-12-19T13:00:18;101306.88;;;-5.21;69.85
58662;BME280;44432;49.786;22.760;2022-12-19T13:02:53;101306.23;;;-5.22;69.89
58662;BME280;44432;49.786;22.760;2022-12-19T13:05:36;101307.79;;;-5.22;69.99
58662;BME280;44432;49.786;22.760;2022-12-19T13:08:33;101316.41;;;-5.23;69.95
58662;BME280;44432;49.786;22.760;2022-12-19T13:11:08;101314.70;;;-5.23;69.96
58662;BME280;44432;49.786;22.760;2022-12-19T13:14:01;101304.46;;;-5.24;69.87
58662;BME280;44432;49.786;22.760;2022-12-19T13:16:49;101296.98;;;-5.27;69.88
58662;BME280;44432;49.786;22.760;2022-12-19T13:19:23;101291.92;;;-5.29;69.65